Terminal Aerodrome Forecast
Issued by NWS

Home | Current Version | Previous Version | Text Only | Print | Product List | Glossary On
Versions: 1 2 3 4 5 6 7 8 9 10 11 12 13 14 15 16 17 18 19
592
FTUS43 KGRR 310316 AAB
TAFAZO
TAF AMD
KAZO 310316Z 3103/3124 VRB03KT P6SM VCSH BKN020
     FM311000 36003KT 4SM BR OVC015
     FM311400 36006KT P6SM BKN040
     FM312200 34008KT P6SM SCT040=

USA.gov is the U.S. government's official web portal to all federal, state and local government web resources and services.